Time;durP1;ratioP1;P1;durP2;ratioP2;P2;SDS_P1;SDS_P2;PMS_P1;PMS_P2;Temp;Humidity;BMP_temperature;BMP_pressure;BME280_temperature;BME280_humidity;BME280_pressure;Samples;Min_cycle;Max_cycle;Signal;HPM_P1;HPM_P2
2021/04/23 00:02:20;;;;;;;2.17;0.63;;;;;;;;;;5018692;28;20267;-59
2021/04/23 00:04:46;;;;;;;0.00;0.00;;;;;;;;;;5015621;28;20196;-60
2021/04/23 00:07:13;;;;;;;0.00;0.00;;;;;;;;;;5015143;28;20195;-59
2021/04/23 00:09:44;;;;;;;0.10;0.10;;;;;;;;;;5018495;28;20277;-60
2021/04/23 00:12:12;;;;;;;2.33;0.60;;;;;;;;;;5020166;28;20871;-59
2021/04/23 00:14:48;;;;;;;0.00;0.00;;;;;;;;;;5022166;28;20184;-59
2021/04/23 00:17:20;;;;;;;0.00;0.00;;;;;;;;;;5015143;28;20210;-59
2021/04/23 00:19:49;;;;;;;0.00;0.00;;;;;;;;;;5016717;28;20184;-59
2021/04/23 00:22:15;;;;;;;0.23;0.00;;;;;;;;;;5023013;28;20180;-60
2021/04/23 00:24:44;;;;;;;0.23;0.03;;;;;;;;;;5021060;28;20187;-60
2021/04/23 00:27:11;;;;;;;0.00;0.00;;;;;;;;;;5017762;28;20188;-59
2021/04/23 00:29:38;;;;;;;0.10;0.10;;;;;;;;;;5011436;28;20622;-59
2021/04/23 00:34:50;;;;;;;0.00;0.00;;;;;;;;;;5015453;28;20303;-64
2021/04/23 00:37:17;;;;;;;0.00;0.00;;;;;;;;;;5015268;28;20218;-64
2021/04/23 00:39:45;;;;;;;0.00;0.00;;;;;;;;;;5015981;28;20270;-65
2021/04/23 00:42:11;;;;;;;0.17;0.10;;;;;;;;;;5016626;28;20191;-65
2021/04/23 00:44:38;;;;;;;2.17;0.17;;;;;;;;;;5013696;28;20292;-64
2021/04/23 00:47:05;;;;;;;0.53;0.53;;;;;;;;;;5017184;28;20199;-64
2021/04/23 00:49:32;;;;;;;0.00;0.00;;;;;;;;;;5009952;28;20183;-64
2021/04/23 00:52:00;;;;;;;0.20;0.20;;;;;;;;;;5013110;28;20191;-63
2021/04/23 00:54:27;;;;;;;0.30;0.00;;;;;;;;;;5014967;28;20535;-64
2021/04/23 00:56:54;;;;;;;0.60;0.43;;;;;;;;;;5012572;28;20843;-59
2021/04/23 00:59:21;;;;;;;1.40;0.27;;;;;;;;;;5012414;28;20188;-59
2021/04/23 01:01:51;;;;;;;0.00;0.00;;;;;;;;;;5012324;28;20168;-59
2021/04/23 01:04:20;;;;;;;0.00;0.00;;;;;;;;;;5009184;28;20184;-60
2021/04/23 01:06:49;;;;;;;0.30;0.30;;;;;;;;;;5009706;28;20192;-64
2021/04/23 01:09:17;;;;;;;0.00;0.00;;;;;;;;;;5009443;28;20229;-65
2021/04/23 01:11:44;;;;;;;0.00;0.00;;;;;;;;;;5008162;28;20195;-65
2021/04/23 01:14:10;;;;;;;0.00;0.00;;;;;;;;;;5010210;28;20466;-65
2021/04/23 01:16:37;;;;;;;0.00;0.00;;;;;;;;;;5011491;28;20235;-65
2021/04/23 01:19:06;;;;;;;0.00;0.00;;;;;;;;;;5014721;28;20196;-64
2021/04/23 01:21:34;;;;;;;0.00;0.00;;;;;;;;;;5012157;28;20196;-65
2021/04/23 01:24:01;;;;;;;0.30;0.30;;;;;;;;;;5010895;28;20265;-65
2021/04/23 01:26:30;;;;;;;0.20;0.20;;;;;;;;;;5013476;28;20958;-63
2021/04/23 01:28:56;;;;;;;2.53;0.70;;;;;;;;;;5011702;28;20181;-65
2021/04/23 01:31:25;;;;;;;0.37;0.20;;;;;;;;;;5013370;28;20672;-65
2021/04/23 01:33:53;;;;;;;0.10;0.10;;;;;;;;;;5011971;28;20944;-64
2021/04/23 01:36:20;;;;;;;0.00;0.00;;;;;;;;;;5016027;28;20905;-63
2021/04/23 01:38:48;;;;;;;0.00;0.00;;;;;;;;;;5011660;28;20885;-65
2021/04/23 01:41:15;;;;;;;0.00;0.00;;;;;;;;;;5011614;28;20523;-65
2021/04/23 01:43:44;;;;;;;0.40;0.40;;;;;;;;;;5015955;28;20180;-66
2021/04/23 01:46:11;;;;;;;0.00;0.00;;;;;;;;;;5015202;28;20555;-65
2021/04/23 01:48:37;;;;;;;3.77;0.30;;;;;;;;;;5011108;28;20184;-66
2021/04/23 01:51:06;;;;;;;2.83;0.80;;;;;;;;;;5013340;28;20229;-65
2021/04/23 01:53:33;;;;;;;0.10;0.10;;;;;;;;;;5014896;28;20586;-66
2021/04/23 01:56:00;;;;;;;0.20;0.20;;;;;;;;;;5016151;28;20220;-65
2021/04/23 01:58:27;;;;;;;0.10;0.10;;;;;;;;;;5022236;28;20213;-66
2021/04/23 02:00:56;;;;;;;1.43;0.50;;;;;;;;;;5015300;28;20891;-65
2021/04/23 02:03:23;;;;;;;0.07;0.07;;;;;;;;;;5012609;28;20483;-65
2021/04/23 02:05:51;;;;;;;0.10;0.10;;;;;;;;;;5016342;28;20657;-64
2021/04/23 02:08:18;;;;;;;0.00;0.00;;;;;;;;;;5010807;28;20648;-65
2021/04/23 02:10:47;;;;;;;0.10;0.10;;;;;;;;;;5015095;28;20312;-59
2021/04/23 02:13:14;;;;;;;6.80;1.00;;;;;;;;;;5012178;28;20600;-58
2021/04/23 02:15:41;;;;;;;0.00;0.00;;;;;;;;;;5014288;28;20185;-59
2021/04/23 02:18:08;;;;;;;0.17;0.17;;;;;;;;;;5018938;28;20298;-59
2021/04/23 02:20:37;;;;;;;6.50;1.27;;;;;;;;;;5018371;28;20275;-59
2021/04/23 02:23:06;;;;;;;0.00;0.00;;;;;;;;;;5016118;28;20708;-59
2021/04/23 02:25:34;;;;;;;15.07;0.43;;;;;;;;;;5010939;28;20249;-59
2021/04/23 02:28:01;;;;;;;0.10;0.10;;;;;;;;;;5016415;28;20196;-59
2021/04/23 02:30:30;;;;;;;0.00;0.00;;;;;;;;;;5017694;28;20227;-59
2021/04/23 02:32:57;;;;;;;0.00;0.00;;;;;;;;;;5013084;28;20523;-59
2021/04/23 02:35:23;;;;;;;0.97;0.10;;;;;;;;;;5019024;28;20203;-59
2021/04/23 02:37:50;;;;;;;6.00;0.40;;;;;;;;;;5017566;28;20602;-59
2021/04/23 02:40:19;;;;;;;0.00;0.00;;;;;;;;;;5012961;28;20183;-59
2021/04/23 02:42:46;;;;;;;0.43;0.40;;;;;;;;;;5015003;28;20183;-59
2021/04/23 02:45:15;;;;;;;0.10;0.10;;;;;;;;;;5014460;28;20263;-59
2021/04/23 02:47:42;;;;;;;0.93;0.93;;;;;;;;;;5017563;28;20694;-59
2021/04/23 02:50:10;;;;;;;1.23;0.30;;;;;;;;;;5018882;28;20235;-59
2021/04/23 02:52:37;;;;;;;0.00;0.00;;;;;;;;;;5014234;28;20199;-59
2021/04/23 02:55:05;;;;;;;0.27;0.27;;;;;;;;;;5017215;28;20184;-58
2021/04/23 02:57:31;;;;;;;0.93;0.57;;;;;;;;;;5011922;28;20271;-58
2021/04/23 02:59:58;;;;;;;0.00;0.00;;;;;;;;;;5016434;28;20188;-58
2021/04/23 03:02:24;;;;;;;1.93;0.77;;;;;;;;;;5022256;28;20663;-58
2021/04/23 03:04:51;;;;;;;0.00;0.00;;;;;;;;;;5015655;28;20173;-58
2021/04/23 03:07:21;;;;;;;0.00;0.00;;;;;;;;;;5019162;28;20310;-58
2021/04/23 03:09:49;;;;;;;0.00;0.00;;;;;;;;;;5015371;28;20617;-58
2021/04/23 03:12:16;;;;;;;1.23;0.37;;;;;;;;;;5016645;28;20279;-58
2021/04/23 03:14:45;;;;;;;1.03;0.37;;;;;;;;;;5010832;28;20185;-58
2021/04/23 03:17:11;;;;;;;3.20;0.33;;;;;;;;;;5014619;28;20216;-58
2021/04/23 03:19:38;;;;;;;0.00;0.00;;;;;;;;;;5016145;28;20195;-58
2021/04/23 03:22:05;;;;;;;0.00;0.00;;;;;;;;;;5010995;28;20184;-58
2021/04/23 03:24:31;;;;;;;0.33;0.33;;;;;;;;;;5011418;28;20242;-58
2021/04/23 03:26:58;;;;;;;0.03;0.03;;;;;;;;;;5019889;28;20716;-58
2021/04/23 03:29:24;;;;;;;7.43;2.00;;;;;;;;;;5016878;28;20636;-58
2021/04/23 03:31:51;;;;;;;0.00;0.00;;;;;;;;;;5017979;28;20185;-58
2021/04/23 03:34:18;;;;;;;1.50;1.40;;;;;;;;;;5020309;28;20895;-59
2021/04/23 03:36:44;;;;;;;5.00;0.63;;;;;;;;;;5016741;28;20628;-59
2021/04/23 03:39:12;;;;;;;0.00;0.00;;;;;;;;;;5018013;28;20271;-58
2021/04/23 03:41:40;;;;;;;0.20;0.20;;;;;;;;;;5017531;28;20188;-59
2021/04/23 03:44:07;;;;;;;0.00;0.00;;;;;;;;;;5017559;28;20192;-60
2021/04/23 03:46:35;;;;;;;0.00;0.00;;;;;;;;;;5018470;28;20195;-59
2021/04/23 03:49:01;;;;;;;0.17;0.07;;;;;;;;;;5016182;28;20200;-58
2021/04/23 03:51:28;;;;;;;0.10;0.10;;;;;;;;;;5019565;28;20693;-58
2021/04/23 03:53:55;;;;;;;0.00;0.00;;;;;;;;;;5024074;28;20245;-59
2021/04/23 03:56:22;;;;;;;0.00;0.00;;;;;;;;;;5015828;28;20229;-59
2021/04/23 03:58:49;;;;;;;1.27;0.53;;;;;;;;;;5017074;28;20562;-59
2021/04/23 04:01:20;;;;;;;0.00;0.00;;;;;;;;;;5011227;28;20189;-58
2021/04/23 04:03:48;;;;;;;0.00;0.00;;;;;;;;;;5016806;28;20287;-69
2021/04/23 04:06:15;;;;;;;1.80;0.87;;;;;;;;;;5016556;28;20667;-68
2021/04/23 04:08:41;;;;;;;0.60;0.30;;;;;;;;;;5017919;28;20278;-68
2021/04/23 04:11:11;;;;;;;0.17;0.17;;;;;;;;;;5026948;28;20263;-68
2021/04/23 04:13:38;;;;;;;1.03;1.00;;;;;;;;;;5014666;28;20823;-68
2021/04/23 04:16:05;;;;;;;0.37;0.37;;;;;;;;;;5017478;28;20184;-68
2021/04/23 04:18:32;;;;;;;0.00;0.00;;;;;;;;;;5017741;28;20297;-68
2021/04/23 04:20:58;;;;;;;0.00;0.00;;;;;;;;;;5015974;28;20195;-67
2021/04/23 04:23:25;;;;;;;0.13;0.13;;;;;;;;;;5017584;28;20207;-67
2021/04/23 04:25:56;;;;;;;0.00;0.00;;;;;;;;;;5016852;28;20178;-67
2021/04/23 04:28:24;;;;;;;0.00;0.00;;;;;;;;;;5015817;28;20242;-67
2021/04/23 04:30:50;;;;;;;0.00;0.00;;;;;;;;;;5016713;28;20199;-67
2021/04/23 04:33:17;;;;;;;0.90;0.83;;;;;;;;;;5018874;28;20459;-68
2021/04/23 04:35:44;;;;;;;1.90;0.63;;;;;;;;;;5030955;28;20212;-68
2021/04/23 04:38:11;;;;;;;0.00;0.00;;;;;;;;;;5021630;28;20215;-67
2021/04/23 04:40:39;;;;;;;0.10;0.10;;;;;;;;;;5023817;28;20253;-68
2021/04/23 04:43:06;;;;;;;0.00;0.00;;;;;;;;;;5017173;28;20915;-68
2021/04/23 04:45:33;;;;;;;0.00;0.00;;;;;;;;;;5017593;28;20814;-67
2021/04/23 04:48:00;;;;;;;0.00;0.00;;;;;;;;;;5016768;28;20276;-68
2021/04/23 04:50:31;;;;;;;0.00;0.00;;;;;;;;;;5016853;28;20184;-67
2021/04/23 04:52:58;;;;;;;0.00;0.00;;;;;;;;;;5017502;28;20258;-67
2021/04/23 04:55:34;;;;;;;0.00;0.00;;;;;;;;;;5023738;28;20420;-67
2021/04/23 04:58:01;;;;;;;0.03;0.03;;;;;;;;;;5010872;28;20293;-68
2021/04/23 05:00:28;;;;;;;0.13;0.13;;;;;;;;;;5017065;28;20184;-67
2021/04/23 05:02:55;;;;;;;0.70;0.70;;;;;;;;;;5019915;28;20187;-68
2021/04/23 05:05:22;;;;;;;0.10;0.10;;;;;;;;;;5018068;28;20235;-67
2021/04/23 05:07:50;;;;;;;0.10;0.10;;;;;;;;;;5010318;28;20188;-68
2021/04/23 05:10:16;;;;;;;0.00;0.00;;;;;;;;;;5024075;28;20291;-67
2021/04/23 05:12:43;;;;;;;0.47;0.47;;;;;;;;;;5015854;28;20969;-67
2021/04/23 05:15:11;;;;;;;8.60;0.50;;;;;;;;;;5023120;28;20183;-67
2021/04/23 05:17:38;;;;;;;0.00;0.00;;;;;;;;;;5015586;28;20208;-67
2021/04/23 05:20:06;;;;;;;0.00;0.00;;;;;;;;;;5018557;28;20636;-68
2021/04/23 05:22:34;;;;;;;0.13;0.13;;;;;;;;;;5018228;28;20180;-66
2021/04/23 05:25:00;;;;;;;0.20;0.20;;;;;;;;;;5015086;28;20198;-67
2021/04/23 05:27:27;;;;;;;0.00;0.00;;;;;;;;;;5011242;28;20726;-67
2021/04/23 05:29:54;;;;;;;0.10;0.10;;;;;;;;;;5020375;28;20282;-67
2021/04/23 05:32:21;;;;;;;0.00;0.00;;;;;;;;;;5017423;28;20189;-67
2021/04/23 05:34:48;;;;;;;0.30;0.30;;;;;;;;;;5022507;28;20192;-67
2021/04/23 05:37:15;;;;;;;0.00;0.00;;;;;;;;;;5015838;28;20409;-67
2021/04/23 05:39:43;;;;;;;0.10;0.10;;;;;;;;;;5017849;28;20195;-67
2021/04/23 05:42:10;;;;;;;0.00;0.00;;;;;;;;;;5020548;28;20270;-67
2021/04/23 05:44:37;;;;;;;0.00;0.00;;;;;;;;;;5019959;28;20793;-67
2021/04/23 05:47:05;;;;;;;1.53;1.43;;;;;;;;;;5023066;28;20196;-67
2021/04/23 05:49:32;;;;;;;0.17;0.17;;;;;;;;;;5022925;28;20188;-67
2021/04/23 05:51:58;;;;;;;0.10;0.10;;;;;;;;;;5024075;28;20198;-67
2021/04/23 05:54:25;;;;;;;0.00;0.00;;;;;;;;;;5021654;28;20190;-67
2021/04/23 05:56:52;;;;;;;0.00;0.00;;;;;;;;;;5022165;28;20220;-67
2021/04/23 05:59:18;;;;;;;0.00;0.00;;;;;;;;;;5018924;28;20238;-67
2021/04/23 06:01:46;;;;;;;0.00;0.00;;;;;;;;;;5019002;28;20195;-66
2021/04/23 06:04:13;;;;;;;0.00;0.00;;;;;;;;;;5023243;28;20198;-66
2021/04/23 06:06:39;;;;;;;0.20;0.10;;;;;;;;;;5020561;28;20198;-67
2021/04/23 06:09:06;;;;;;;0.50;0.40;;;;;;;;;;5022745;28;20257;-67
2021/04/23 06:11:33;;;;;;;7.93;0.57;;;;;;;;;;5020561;28;20676;-67
2021/04/23 06:13:59;;;;;;;0.00;0.00;;;;;;;;;;5020597;28;20246;-66
2021/04/23 06:16:26;;;;;;;0.10;0.10;;;;;;;;;;5022412;28;20192;-59
2021/04/23 06:18:53;;;;;;;0.00;0.00;;;;;;;;;;5019861;28;20687;-59
2021/04/23 06:21:19;;;;;;;0.10;0.10;;;;;;;;;;5020263;28;20184;-60
2021/04/23 06:23:46;;;;;;;0.40;0.40;;;;;;;;;;5021001;28;21057;-58
2021/04/23 06:26:12;;;;;;;0.10;0.10;;;;;;;;;;5018195;28;20194;-59
2021/04/23 06:28:39;;;;;;;0.10;0.10;;;;;;;;;;5024647;28;20366;-58
2021/04/23 06:31:07;;;;;;;0.60;0.60;;;;;;;;;;5019257;28;20656;-58
2021/04/23 06:33:38;;;;;;;0.00;0.00;;;;;;;;;;5025928;28;20191;-59
2021/04/23 06:36:05;;;;;;;1.30;1.03;;;;;;;;;;5015197;28;20195;-59
2021/04/23 06:38:31;;;;;;;0.50;0.50;;;;;;;;;;5026467;28;20277;-59
2021/04/23 06:40:58;;;;;;;0.30;0.30;;;;;;;;;;5018659;28;20195;-59
2021/04/23 06:43:25;;;;;;;0.10;0.10;;;;;;;;;;5018272;28;20270;-59
2021/04/23 06:45:52;;;;;;;0.00;0.00;;;;;;;;;;5013911;28;20192;-59
2021/04/23 06:48:19;;;;;;;0.00;0.00;;;;;;;;;;5019788;28;20218;-59
2021/04/23 06:50:45;;;;;;;2.83;0.47;;;;;;;;;;5022063;28;20197;-59
2021/04/23 06:53:12;;;;;;;0.97;0.20;;;;;;;;;;5020753;28;20195;-59
2021/04/23 06:55:39;;;;;;;0.00;0.00;;;;;;;;;;5016483;28;20211;-59
2021/04/23 06:58:06;;;;;;;0.00;0.00;;;;;;;;;;5016511;28;20960;-58
2021/04/23 07:00:34;;;;;;;0.20;0.20;;;;;;;;;;5017186;28;20187;-59
2021/04/23 07:03:01;;;;;;;0.00;0.00;;;;;;;;;;5029375;28;20933;-59
2021/04/23 07:05:28;;;;;;;0.10;0.10;;;;;;;;;;5011822;28;20266;-59
2021/04/23 07:07:55;;;;;;;0.00;0.00;;;;;;;;;;5008736;28;20195;-59
2021/04/23 07:10:24;;;;;;;1.90;1.10;;;;;;;;;;5018236;28;20643;-59
2021/04/23 07:12:51;;;;;;;0.10;0.10;;;;;;;;;;5017673;28;20199;-59
2021/04/23 07:15:19;;;;;;;0.33;0.23;;;;;;;;;;5016436;28;20191;-58
2021/04/23 07:17:46;;;;;;;0.00;0.00;;;;;;;;;;5017501;28;20215;-59
2021/04/23 07:20:13;;;;;;;0.00;0.00;;;;;;;;;;5016922;28;20183;-59
2021/04/23 07:22:40;;;;;;;5.77;1.30;;;;;;;;;;5007143;28;20191;-59
2021/04/23 07:25:07;;;;;;;0.00;0.00;;;;;;;;;;5019566;28;20179;-59
2021/04/23 07:27:37;;;;;;;0.30;0.30;;;;;;;;;;5014014;28;20188;-59
2021/04/23 07:30:08;;;;;;;0.20;0.20;;;;;;;;;;5018887;28;20182;-59
2021/04/23 07:32:34;;;;;;;0.10;0.10;;;;;;;;;;5017796;28;20201;-68
2021/04/23 07:35:01;;;;;;;0.03;0.03;;;;;;;;;;5018284;28;20253;-68
2021/04/23 07:37:28;;;;;;;0.20;0.20;;;;;;;;;;5018680;28;20226;-68
2021/04/23 07:39:54;;;;;;;0.00;0.00;;;;;;;;;;5019166;28;20813;-58
2021/04/23 07:42:21;;;;;;;0.57;0.57;;;;;;;;;;5020914;28;20353;-59
2021/04/23 07:44:48;;;;;;;0.00;0.00;;;;;;;;;;5017594;28;20196;-59
2021/04/23 07:47:14;;;;;;;0.83;0.73;;;;;;;;;;5018820;28;20336;-59
2021/04/23 07:49:42;;;;;;;0.00;0.00;;;;;;;;;;5015596;28;20199;-59
2021/04/23 07:52:09;;;;;;;0.00;0.00;;;;;;;;;;5017089;28;21980;-59
2021/04/23 07:54:35;;;;;;;0.03;0.03;;;;;;;;;;5014293;28;20226;-59
2021/04/23 07:57:05;;;;;;;0.00;0.00;;;;;;;;;;5017967;28;20231;-58
2021/04/23 07:59:32;;;;;;;0.00;0.00;;;;;;;;;;5015998;28;20207;-59
2021/04/23 08:01:58;;;;;;;0.03;0.03;;;;;;;;;;5012216;28;20188;-59
2021/04/23 08:04:25;;;;;;;4.23;0.53;;;;;;;;;;5013973;28;20192;-59
2021/04/23 08:06:51;;;;;;;0.20;0.20;;;;;;;;;;5009846;28;20727;-59
2021/04/23 08:09:18;;;;;;;1.00;0.80;;;;;;;;;;5010270;28;20337;-59
2021/04/23 08:11:44;;;;;;;0.00;0.00;;;;;;;;;;5014100;28;20191;-59
2021/04/23 08:14:11;;;;;;;0.43;0.40;;;;;;;;;;5017640;28;20202;-59
2021/04/23 08:16:37;;;;;;;0.00;0.00;;;;;;;;;;5014804;28;20688;-59
2021/04/23 08:19:04;;;;;;;0.20;0.20;;;;;;;;;;5011942;28;20597;-59
2021/04/23 08:21:31;;;;;;;1.70;0.40;;;;;;;;;;5009762;28;20184;-59
2021/04/23 08:23:57;;;;;;;0.93;0.27;;;;;;;;;;5009751;28;20260;-59
2021/04/23 08:26:24;;;;;;;0.00;0.00;;;;;;;;;;5020184;28;20184;-59
2021/04/23 08:28:51;;;;;;;0.63;0.27;;;;;;;;;;5011686;28;20183;-59
2021/04/23 08:31:19;;;;;;;0.00;0.00;;;;;;;;;;5013411;28;20235;-59
2021/04/23 08:33:45;;;;;;;0.93;0.93;;;;;;;;;;5020431;28;20202;-59
2021/04/23 08:36:12;;;;;;;0.00;0.00;;;;;;;;;;5014308;28;20282;-59
2021/04/23 13:11:58;;;;;;;0.10;0.00;;;;;;;;;;5028887;27;1822659;-61
2021/04/23 13:14:25;;;;;;;2.23;0.67;;;;;;;;;;5071791;28;20210;-62
2021/04/23 13:16:55;;;;;;;0.30;0.30;;;;;;;;;;5074517;28;20188;-61
2021/04/23 13:19:45;;;;;;;1.33;0.57;;;;;;;;;;5072677;28;20676;-61
2021/04/23 13:22:28;;;;;;;3.20;0.53;;;;;;;;;;5066499;28;20184;-61
2021/04/23 13:25:14;;;;;;;1.53;0.43;;;;;;;;;;5071979;28;20174;-61
2021/04/23 13:27:42;;;;;;;0.10;0.10;;;;;;;;;;5076238;28;20847;-61
2021/04/23 13:30:10;;;;;;;0.00;0.00;;;;;;;;;;5076366;28;20436;-61
2021/04/23 13:32:52;;;;;;;1.00;0.47;;;;;;;;;;5067131;28;20876;-61
2021/04/23 13:35:27;;;;;;;0.20;0.20;;;;;;;;;;5072560;28;20188;-61
2021/04/23 13:37:55;;;;;;;2.00;0.87;;;;;;;;;;5063078;28;20189;-61
2021/04/23 13:40:30;;;;;;;1.80;1.70;;;;;;;;;;5058924;28;20191;-61
2021/04/23 13:43:09;;;;;;;1.07;1.00;;;;;;;;;;5069040;28;20565;-61
2021/04/23 13:45:37;;;;;;;0.10;0.10;;;;;;;;;;5068520;28;20183;-61
2021/04/23 13:48:15;;;;;;;0.37;0.20;;;;;;;;;;5072457;28;20223;-61
2021/04/23 13:50:42;;;;;;;8.20;3.03;;;;;;;;;;5069525;28;20200;-61
2021/04/23 13:53:10;;;;;;;0.50;0.47;;;;;;;;;;5076342;28;20288;-61
2021/04/23 13:55:36;;;;;;;12.03;1.57;;;;;;;;;;5075201;28;20190;-61
2021/04/23 13:58:05;;;;;;;1.27;0.60;;;;;;;;;;5076723;28;20223;-61
2021/04/23 14:00:51;;;;;;;0.30;0.30;;;;;;;;;;5067584;28;20466;-61
2021/04/23 14:03:19;;;;;;;0.47;0.47;;;;;;;;;;5061053;28;20195;-61
2021/04/23 14:05:46;;;;;;;0.10;0.10;;;;;;;;;;5073088;28;20817;-61
2021/04/23 14:08:12;;;;;;;0.70;0.70;;;;;;;;;;5068582;28;20181;-61
2021/04/23 14:10:40;;;;;;;0.17;0.17;;;;;;;;;;5077285;28;20324;-61
2021/04/23 14:13:06;;;;;;;0.10;0.10;;;;;;;;;;5066018;28;20208;-61
2021/04/23 14:15:35;;;;;;;3.07;0.13;;;;;;;;;;5064767;28;20265;-61
2021/04/23 14:18:01;;;;;;;2.33;0.37;;;;;;;;;;5060990;28;20744;-61
2021/04/23 14:20:29;;;;;;;0.50;0.50;;;;;;;;;;5060340;28;20177;-61
2021/04/23 14:22:57;;;;;;;7.00;3.50;;;;;;;;;;5049263;28;20204;-61
2021/04/23 14:25:24;;;;;;;1.30;0.97;;;;;;;;;;5044110;28;20299;-61
2021/04/23 14:27:51;;;;;;;3.43;0.30;;;;;;;;;;5056317;28;20201;-61
2021/04/23 14:30:18;;;;;;;0.00;0.00;;;;;;;;;;5064681;28;20685;-61
2021/04/23 14:32:44;;;;;;;0.97;0.50;;;;;;;;;;5062474;28;20172;-61
2021/04/23 14:35:11;;;;;;;0.73;0.10;;;;;;;;;;5059626;28;20881;-61
2021/04/23 14:37:39;;;;;;;0.30;0.17;;;;;;;;;;5050131;28;20174;-61
2021/04/23 14:40:06;;;;;;;0.33;0.30;;;;;;;;;;5048724;28;20198;-61
2021/04/23 14:42:32;;;;;;;0.20;0.20;;;;;;;;;;5047694;28;20667;-61
2021/04/23 14:44:59;;;;;;;0.47;0.40;;;;;;;;;;5050881;28;20191;-61
2021/04/23 14:47:28;;;;;;;1.50;1.40;;;;;;;;;;5054514;28;20202;-61
2021/04/23 14:49:55;;;;;;;0.87;0.30;;;;;;;;;;5055737;28;20773;-61
2021/04/23 14:52:22;;;;;;;0.20;0.20;;;;;;;;;;5057244;28;20178;-61
2021/04/23 14:54:49;;;;;;;0.00;0.00;;;;;;;;;;5043036;28;20283;-61
2021/04/23 14:57:16;;;;;;;1.13;1.00;;;;;;;;;;5048835;28;20294;-61
2021/04/23 14:59:42;;;;;;;0.70;0.70;;;;;;;;;;5056204;28;20182;-61
2021/04/23 15:02:09;;;;;;;0.87;0.10;;;;;;;;;;5054581;28;20194;-61
2021/04/23 15:04:35;;;;;;;1.13;0.30;;;;;;;;;;5053245;28;20189;-61
2021/04/23 15:07:02;;;;;;;3.33;0.90;;;;;;;;;;5054057;28;20693;-61
2021/04/23 15:09:29;;;;;;;0.43;0.43;;;;;;;;;;5052889;28;20812;-61
2021/04/23 15:11:55;;;;;;;2.17;0.80;;;;;;;;;;5054972;28;20231;-61
2021/04/23 15:14:22;;;;;;;2.70;1.17;;;;;;;;;;5057312;28;20186;-61
2021/04/23 15:16:49;;;;;;;1.13;0.83;;;;;;;;;;5061949;28;20177;-61
2021/04/23 15:19:15;;;;;;;2.80;1.07;;;;;;;;;;5062002;28;20186;-61
2021/04/23 15:21:42;;;;;;;1.30;0.67;;;;;;;;;;5058931;28;20200;-61
2021/04/23 15:24:10;;;;;;;0.10;0.10;;;;;;;;;;5062221;28;20467;-61
2021/04/23 15:26:36;;;;;;;1.00;0.97;;;;;;;;;;5050068;28;20168;-61
2021/04/23 15:29:04;;;;;;;5.60;1.30;;;;;;;;;;5055372;28;20188;-61
2021/04/23 15:31:30;;;;;;;2.73;0.20;;;;;;;;;;5061019;28;20745;-61
2021/04/23 15:33:58;;;;;;;0.00;0.00;;;;;;;;;;5057832;28;20195;-61
2021/04/23 15:36:25;;;;;;;1.63;1.00;;;;;;;;;;5060431;28;20880;-61
2021/04/23 15:38:52;;;;;;;0.53;0.20;;;;;;;;;;5059301;28;20206;-61
2021/04/23 15:41:19;;;;;;;0.00;0.00;;;;;;;;;;5044965;28;20188;-61
2021/04/23 15:43:46;;;;;;;1.10;0.73;;;;;;;;;;5060227;28;20625;-61
2021/04/23 15:46:12;;;;;;;1.43;1.30;;;;;;;;;;5046432;28;20189;-61
2021/04/23 15:48:39;;;;;;;0.30;0.27;;;;;;;;;;5054289;28;20197;-61
2021/04/23 15:51:06;;;;;;;1.37;0.70;;;;;;;;;;5051128;28;20214;-61
2021/04/23 15:53:33;;;;;;;5.73;0.67;;;;;;;;;;5050405;28;20285;-61
2021/04/23 15:56:01;;;;;;;8.90;1.17;;;;;;;;;;5048490;28;20181;-61
2021/04/23 15:58:29;;;;;;;0.90;0.40;;;;;;;;;;5054555;28;20185;-61
2021/04/23 16:00:56;;;;;;;0.10;0.10;;;;;;;;;;5057707;28;20659;-61
2021/04/23 16:03:23;;;;;;;1.63;0.57;;;;;;;;;;5046579;28;20273;-61
2021/04/23 16:05:49;;;;;;;0.10;0.10;;;;;;;;;;5044419;28;20198;-61
2021/04/23 16:08:16;;;;;;;1.73;0.50;;;;;;;;;;5051338;28;20202;-60
2021/04/23 16:10:43;;;;;;;0.93;0.20;;;;;;;;;;5043176;28;20227;-61
2021/04/23 16:13:11;;;;;;;0.90;0.73;;;;;;;;;;5057804;28;20908;-61
2021/04/23 16:15:37;;;;;;;0.47;0.40;;;;;;;;;;5055725;28;20178;-61
2021/04/23 16:18:04;;;;;;;5.83;0.57;;;;;;;;;;5053964;28;20190;-61
2021/04/23 16:20:31;;;;;;;1.40;0.57;;;;;;;;;;5044967;28;20181;-61
2021/04/23 16:22:59;;;;;;;5.77;0.83;;;;;;;;;;5060012;28;20498;-61
2021/04/23 16:25:32;;;;;;;1.73;1.60;;;;;;;;;;5058701;28;20189;-61
2021/04/23 16:27:59;;;;;;;0.67;0.50;;;;;;;;;;5050411;28;20179;-61
2021/04/23 16:30:26;;;;;;;0.20;0.20;;;;;;;;;;5057137;28;20214;-61
2021/04/23 16:32:54;;;;;;;3.63;0.97;;;;;;;;;;5058167;28;20222;-61
2021/04/23 16:35:21;;;;;;;0.00;0.00;;;;;;;;;;5053464;28;20931;-61
2021/04/23 16:37:50;;;;;;;2.10;1.03;;;;;;;;;;5051873;28;20204;-61
2021/04/23 16:40:17;;;;;;;0.80;0.10;;;;;;;;;;5046810;28;20678;-61
2021/04/23 16:42:44;;;;;;;0.30;0.30;;;;;;;;;;5055067;28;20189;-61
2021/04/23 16:45:11;;;;;;;0.93;0.40;;;;;;;;;;5058392;28;20200;-61
2021/04/23 16:47:38;;;;;;;0.70;0.13;;;;;;;;;;5058060;28;20188;-61
2021/04/23 16:50:05;;;;;;;0.70;0.67;;;;;;;;;;5050762;28;20332;-61
2021/04/23 16:52:32;;;;;;;3.63;1.27;;;;;;;;;;5048972;28;20640;-61
2021/04/23 16:54:59;;;;;;;0.00;0.00;;;;;;;;;;5067236;28;20174;-61
2021/04/23 16:57:25;;;;;;;15.57;2.33;;;;;;;;;;5050146;28;20180;-61
2021/04/23 16:59:52;;;;;;;1.20;0.33;;;;;;;;;;5055984;28;20197;-61
2021/04/23 17:02:18;;;;;;;0.00;0.00;;;;;;;;;;5057471;28;20741;-61
2021/04/23 17:04:45;;;;;;;0.87;0.77;;;;;;;;;;5057297;28;20188;-61
2021/04/23 17:07:11;;;;;;;0.70;0.20;;;;;;;;;;5050066;28;20178;-61
2021/04/23 17:09:38;;;;;;;3.20;0.93;;;;;;;;;;5051756;28;20608;-61
2021/04/23 17:12:05;;;;;;;11.47;1.53;;;;;;;;;;5049813;28;20242;-61
2021/04/23 17:14:31;;;;;;;1.73;1.40;;;;;;;;;;5050130;28;20305;-61
2021/04/23 17:17:01;;;;;;;0.33;0.10;;;;;;;;;;5057018;28;20182;-60
2021/04/23 17:19:27;;;;;;;1.63;1.20;;;;;;;;;;5058532;28;20274;-60
2021/04/23 17:21:54;;;;;;;0.07;0.00;;;;;;;;;;5058621;28;20190;-60
2021/04/23 17:24:21;;;;;;;0.37;0.37;;;;;;;;;;5052134;28;20193;-60
2021/04/23 17:26:47;;;;;;;0.10;0.10;;;;;;;;;;5056598;28;20220;-61
2021/04/23 17:29:15;;;;;;;1.50;0.67;;;;;;;;;;5044141;28;20199;-60
2021/04/23 17:31:43;;;;;;;1.13;0.70;;;;;;;;;;5050754;28;20207;-61
2021/04/23 17:34:10;;;;;;;0.50;0.50;;;;;;;;;;5053868;28;20755;-61
2021/04/23 17:36:37;;;;;;;3.40;0.90;;;;;;;;;;5052894;28;20230;-61
2021/04/23 17:39:04;;;;;;;0.20;0.20;;;;;;;;;;5061694;28;20182;-61
2021/04/23 17:41:31;;;;;;;0.27;0.27;;;;;;;;;;5054799;28;20194;-61
2021/04/23 17:43:59;;;;;;;1.03;1.00;;;;;;;;;;5055033;28;20655;-61
2021/04/23 17:46:26;;;;;;;0.20;0.10;;;;;;;;;;5057914;28;20190;-60
2021/04/23 17:48:52;;;;;;;0.00;0.00;;;;;;;;;;5056498;28;20290;-61
2021/04/23 17:51:19;;;;;;;0.60;0.40;;;;;;;;;;5041209;28;20210;-61
2021/04/23 17:53:46;;;;;;;0.17;0.17;;;;;;;;;;5050843;28;20235;-60
2021/04/23 17:56:16;;;;;;;1.60;0.60;;;;;;;;;;5061030;28;20184;-61
2021/04/23 17:58:43;;;;;;;4.33;2.53;;;;;;;;;;5054131;28;20550;-61
2021/04/23 18:01:12;;;;;;;0.57;0.30;;;;;;;;;;5062612;28;20244;-61
2021/04/23 18:03:38;;;;;;;10.07;1.07;;;;;;;;;;5064698;28;20194;-61
2021/04/23 18:06:05;;;;;;;2.90;0.10;;;;;;;;;;5063287;28;20177;-61
2021/04/23 18:08:32;;;;;;;0.67;0.60;;;;;;;;;;5055061;28;20178;-61
2021/04/23 18:10:58;;;;;;;1.17;0.20;;;;;;;;;;5074155;28;20238;-61
2021/04/23 18:13:25;;;;;;;1.87;0.23;;;;;;;;;;5060458;28;20205;-61
2021/04/23 18:15:52;;;;;;;0.30;0.27;;;;;;;;;;5062128;28;20193;-61
2021/04/23 18:18:18;;;;;;;0.00;0.00;;;;;;;;;;5063987;28;20170;-61
2021/04/23 18:20:45;;;;;;;11.47;0.97;;;;;;;;;;5063019;28;20711;-61
2021/04/23 18:23:12;;;;;;;8.70;1.60;;;;;;;;;;5059766;28;20888;-61
2021/04/23 18:25:38;;;;;;;0.47;0.47;;;;;;;;;;5063995;28;20166;-61
2021/04/23 18:28:05;;;;;;;0.93;0.40;;;;;;;;;;5064052;28;20272;-61
2021/04/23 18:30:33;;;;;;;0.40;0.40;;;;;;;;;;5062512;28;20496;-61
2021/04/23 18:32:59;;;;;;;1.57;0.20;;;;;;;;;;5062126;28;20193;-61
2021/04/23 18:35:27;;;;;;;0.57;0.57;;;;;;;;;;5063850;28;20170;-61
2021/04/23 18:37:54;;;;;;;0.10;0.10;;;;;;;;;;5063112;28;20176;-61
2021/04/23 18:40:24;;;;;;;6.87;2.10;;;;;;;;;;5050774;28;20175;-61
2021/04/23 18:42:52;;;;;;;0.30;0.30;;;;;;;;;;5046739;28;20206;-61
2021/04/23 18:45:20;;;;;;;3.50;0.30;;;;;;;;;;5056072;28;20480;-61
2021/04/23 18:47:47;;;;;;;0.43;0.20;;;;;;;;;;5060407;28;20619;-61
2021/04/23 18:50:15;;;;;;;0.17;0.10;;;;;;;;;;5057606;28;20214;-61
2021/04/23 18:52:42;;;;;;;2.67;0.67;;;;;;;;;;5050442;28;20829;-61
2021/04/23 18:55:10;;;;;;;1.13;0.60;;;;;;;;;;5059384;28;20334;-61
2021/04/23 18:57:36;;;;;;;0.27;0.27;;;;;;;;;;5061697;28;20224;-61
2021/04/23 19:00:05;;;;;;;0.13;0.13;;;;;;;;;;5061392;28;20849;-61
2021/04/23 19:02:33;;;;;;;0.20;0.20;;;;;;;;;;5060662;28;20186;-61
2021/04/23 19:05:00;;;;;;;0.00;0.00;;;;;;;;;;5062983;28;20182;-61
2021/04/23 19:07:26;;;;;;;0.60;0.20;;;;;;;;;;5059454;28;20358;-61
2021/04/23 19:09:53;;;;;;;0.10;0.10;;;;;;;;;;5059626;28;20226;-62
2021/04/23 19:12:20;;;;;;;5.03;1.80;;;;;;;;;;5058766;28;20191;-61
2021/04/23 19:14:47;;;;;;;1.27;0.27;;;;;;;;;;5061118;28;20202;-61
2021/04/23 19:17:14;;;;;;;0.10;0.10;;;;;;;;;;5053188;28;20188;-61
2021/04/23 19:19:41;;;;;;;2.37;0.70;;;;;;;;;;5060330;28;20178;-61
2021/04/23 19:22:08;;;;;;;1.30;0.10;;;;;;;;;;5051619;28;20193;-61